createdAt,value
2019-02-05T00:01:34.184Z,1.80
2019-02-05T00:04:02.588Z,1.90
2019-02-05T00:06:30.501Z,2.20
2019-02-05T00:08:58.266Z,1.80
2019-02-05T00:11:26.145Z,1.80
2019-02-05T00:13:53.882Z,1.90
2019-02-05T00:16:21.680Z,1.90
2019-02-05T00:18:51.625Z,2.00
2019-02-05T00:21:19.172Z,2.00
2019-02-05T00:23:46.976Z,2.00
2019-02-05T00:26:14.785Z,2.00
2019-02-05T00:28:42.504Z,2.00
2019-02-05T00:31:10.332Z,2.00
2019-02-05T00:33:38.170Z,2.30
2019-02-05T00:36:05.961Z,1.90
2019-02-05T00:38:33.711Z,2.50
2019-02-05T00:41:01.550Z,1.80
2019-02-05T00:43:31.534Z,1.70
2019-02-05T00:45:59.349Z,2.10
2019-02-05T00:48:27.112Z,1.20
2019-02-05T00:50:54.908Z,2.00
2019-02-05T00:53:22.961Z,1.50
2019-02-05T00:55:50.714Z,1.70
2019-02-05T00:58:18.536Z,1.40
2019-02-05T01:00:46.316Z,1.70
2019-02-05T01:03:14.238Z,1.60
2019-02-05T01:05:42.055Z,1.40
2019-02-05T01:08:09.986Z,1.30
2019-02-05T01:10:38.078Z,1.30
2019-02-05T01:13:05.893Z,1.50
2019-02-05T01:15:33.654Z,1.70
2019-02-05T01:18:01.398Z,1.20
2019-02-05T01:20:29.175Z,1.50
2019-02-05T01:22:56.984Z,1.30
2019-02-05T01:25:24.815Z,1.10
2019-02-05T01:27:52.617Z,1.00
2019-02-05T01:30:24.971Z,1.20
2019-02-05T01:32:52.855Z,0.90
2019-02-05T01:35:21.085Z,1.10
2019-02-05T01:37:48.948Z,0.80
2019-02-05T01:40:18.900Z,0.70
2019-02-05T01:42:46.708Z,0.80
2019-02-05T01:45:17.155Z,0.60
2019-02-05T01:47:44.944Z,1.00
2019-02-05T01:50:17.014Z,0.60
2019-02-05T01:52:44.955Z,0.50
2019-02-05T01:55:13.582Z,0.50
2019-02-05T01:57:41.861Z,0.40
2019-02-05T02:00:14.412Z,0.60
2019-02-05T02:02:42.231Z,0.30
2019-02-05T02:05:10.302Z,0.20
2019-02-05T02:07:38.139Z,0.50
2019-02-05T02:10:08.002Z,0.60
2019-02-05T02:12:36.125Z,0.10
2019-02-05T02:15:05.409Z,0.40
2019-02-05T02:17:33.376Z,0.30
2019-02-05T02:20:01.135Z,0.00
2019-02-05T02:22:29.156Z,0.00
2019-02-05T02:24:58.765Z,-0.10
2019-02-05T02:27:26.913Z,-0.10
2019-02-05T02:29:54.767Z,-0.10
2019-02-05T02:32:22.556Z,-0.20
2019-02-05T02:34:50.359Z,-0.30
2019-02-05T02:37:18.177Z,-0.40
2019-02-05T02:39:45.969Z,-0.40
2019-02-05T02:42:13.739Z,-0.40
2019-02-05T02:44:41.574Z,-0.40
2019-02-05T02:47:09.328Z,-0.50
2019-02-05T02:49:37.130Z,-0.50
2019-02-05T02:52:04.923Z,-0.50
2019-02-05T02:54:32.727Z,-0.20
2019-02-05T02:57:04.976Z,0.10
2019-02-05T02:59:30.263Z,-0.60
2019-02-05T03:01:58.762Z,-0.60
2019-02-05T03:04:26.580Z,0.00
2019-02-05T03:06:54.388Z,-0.90
2019-02-05T03:09:22.174Z,-0.60
2019-02-05T03:11:49.950Z,-0.70
2019-02-05T03:14:17.754Z,-0.70
2019-02-05T03:16:45.866Z,-0.70
2019-02-05T03:19:13.660Z,-0.70
2019-02-05T03:21:41.762Z,-0.60
2019-02-05T03:24:09.543Z,-0.70
2019-02-05T03:26:37.344Z,-0.70
2019-02-05T03:29:05.152Z,-0.70
2019-02-05T03:31:32.985Z,-0.80
2019-02-05T03:34:00.750Z,-0.80
2019-02-05T03:36:28.585Z,-0.60
2019-02-05T03:38:56.375Z,-1.10
2019-02-05T03:41:24.830Z,-1.20
2019-02-05T03:43:52.569Z,-1.20
2019-02-05T03:46:20.682Z,-1.20
2019-02-05T03:48:49.449Z,-1.20
2019-02-05T03:52:01.423Z,-1.20
2019-02-05T03:55:36.919Z,-1.20
2019-02-05T03:59:09.287Z,-0.40
2019-02-05T04:02:41.637Z,-1.20
2019-02-05T04:05:48.428Z,-1.20
2019-02-05T04:09:26.315Z,-0.50
2019-02-05T04:12:49.442Z,-1.30
2019-02-05T04:17:00.830Z,-1.40
2019-02-05T04:20:53.007Z,-1.40
2019-02-05T04:24:01.747Z,-1.30
2019-02-05T04:27:47.866Z,-1.50
2019-02-05T04:31:23.260Z,-1.60
2019-02-05T04:34:42.224Z,-1.60
2019-02-05T04:38:06.732Z,-1.60
2019-02-05T04:41:15.657Z,-1.60
2019-02-05T04:44:51.731Z,-1.50
2019-02-05T04:48:28.463Z,-1.70
2019-02-05T04:51:47.962Z,-1.70
2019-02-05T04:55:07.659Z,-1.70
2019-02-05T04:58:28.276Z,-1.70
2019-02-05T05:01:53.705Z,-1.60
2019-02-05T05:04:43.157Z,-1.80
2019-02-05T05:08:15.447Z,-1.80
2019-02-05T05:10:46.034Z,-1.80
2019-02-05T05:13:13.856Z,-1.50
2019-02-05T05:15:41.870Z,-1.20
2019-02-05T05:18:10.105Z,-1.70
2019-02-05T05:20:38.283Z,-1.80
2019-02-05T05:23:06.086Z,-1.50
2019-02-05T05:25:34.301Z,-1.70
2019-02-05T05:28:09.772Z,-1.80
2019-02-05T05:30:31.990Z,-1.80
2019-02-05T05:32:59.810Z,-1.70
2019-02-05T05:35:41.846Z,-1.70
2019-02-05T05:38:07.673Z,-1.70
2019-02-05T05:40:35.446Z,-1.60
2019-02-05T05:43:03.294Z,-1.60
2019-02-05T05:45:31.262Z,-1.60
2019-02-05T05:47:59.080Z,-1.60
2019-02-05T05:50:26.812Z,-1.60
2019-02-05T05:52:54.622Z,-1.10
2019-02-05T05:55:22.429Z,-1.50
2019-02-05T05:57:50.223Z,-1.50
2019-02-05T06:00:39.673Z,-1.50
2019-02-05T06:03:07.479Z,-1.20
2019-02-05T06:05:35.460Z,-1.30
2019-02-05T06:08:03.275Z,-1.40
2019-02-05T06:10:31.028Z,-1.30
2019-02-05T06:12:58.944Z,-1.30
2019-02-05T06:15:27.856Z,-1.20
2019-02-05T06:17:56.934Z,-1.40
2019-02-05T06:20:24.756Z,-1.20
2019-02-05T06:22:53.081Z,-1.40
2019-02-05T06:25:23.605Z,-1.50
2019-02-05T06:27:53.669Z,-1.60
2019-02-05T06:30:33.674Z,-1.60
2019-02-05T06:33:01.457Z,-1.70
2019-02-05T06:35:48.354Z,-1.10
2019-02-05T06:38:16.135Z,-1.70
2019-02-05T06:40:43.919Z,-1.70
2019-02-05T06:43:11.945Z,-1.80
2019-02-05T06:45:41.552Z,-1.60
2019-02-05T06:48:09.438Z,-1.60
2019-02-05T06:50:37.702Z,-1.60
2019-02-05T06:53:05.499Z,-1.50
2019-02-05T06:55:33.551Z,-1.40
2019-02-05T06:58:01.356Z,-1.30
2019-02-05T07:00:29.140Z,-0.60
2019-02-05T07:02:56.971Z,-1.00
2019-02-05T07:05:24.859Z,-0.90
2019-02-05T07:07:52.969Z,-0.80
2019-02-05T07:10:21.275Z,-0.70
2019-02-05T07:12:51.128Z,-0.30
2019-02-05T07:15:18.822Z,-0.60
2019-02-05T07:17:49.845Z,-0.20
2019-02-05T07:20:16.582Z,-0.40
2019-02-05T07:22:44.369Z,-0.30
2019-02-05T07:25:14.344Z,-0.20
2019-02-05T07:27:42.179Z,0.10
2019-02-05T07:30:17.417Z,0.00
2019-02-05T07:32:45.276Z,0.10
2019-02-05T07:35:13.688Z,0.10
2019-02-05T07:37:41.497Z,0.10
2019-02-05T07:40:12.122Z,0.50
2019-02-05T07:42:40.191Z,0.60
2019-02-05T07:45:11.792Z,0.00
2019-02-05T07:47:39.584Z,0.10
2019-02-05T07:50:11.794Z,0.20
2019-02-05T07:52:39.652Z,0.70
2019-02-05T07:55:08.555Z,0.80
2019-02-05T07:57:36.371Z,0.50
2019-02-05T08:00:09.814Z,0.50
2019-02-05T08:02:37.662Z,0.90
2019-02-05T08:05:09.141Z,1.00
2019-02-05T08:07:36.945Z,0.80
2019-02-05T08:10:05.655Z,0.80
2019-02-05T08:12:33.451Z,0.80
2019-02-05T08:15:01.247Z,0.90
2019-02-05T08:17:29.557Z,0.90
2019-02-05T08:19:57.851Z,1.40
2019-02-05T08:22:25.686Z,0.90
2019-02-05T08:24:53.401Z,1.00
2019-02-05T08:27:21.171Z,1.20
2019-02-05T08:29:48.930Z,1.30
2019-02-05T08:32:18.853Z,1.40
2019-02-05T08:34:46.662Z,1.50
2019-02-05T08:37:14.752Z,1.60
2019-02-05T08:39:42.604Z,1.80
2019-02-05T08:42:10.372Z,1.50
2019-02-05T08:44:38.210Z,1.60
2019-02-05T08:47:06.219Z,1.70
2019-02-05T08:49:34.012Z,1.80
2019-02-05T08:52:01.813Z,1.90
2019-02-05T08:54:29.648Z,2.00
2019-02-05T08:57:03.184Z,2.10
2019-02-05T08:59:30.963Z,2.20
2019-02-05T09:01:58.745Z,2.30
2019-02-05T09:04:26.476Z,2.30
2019-02-05T09:06:54.490Z,2.20
2019-02-05T09:09:22.309Z,2.30
2019-02-05T09:11:51.422Z,2.50
2019-02-05T09:14:19.726Z,2.70
2019-02-05T09:16:52.700Z,2.90
2019-02-05T09:19:20.487Z,3.00
2019-02-05T09:21:48.262Z,3.10
2019-02-05T09:24:16.018Z,3.30
2019-02-05T09:26:44.024Z,3.40
2019-02-05T09:29:11.795Z,3.50
2019-02-05T09:31:39.944Z,3.80
2019-02-05T09:34:07.687Z,4.00
2019-02-05T09:36:45.587Z,4.70
2019-02-05T09:39:13.350Z,4.30
2019-02-05T09:41:41.278Z,4.40
2019-02-05T09:44:09.036Z,4.50
2019-02-05T09:46:36.890Z,4.40
2019-02-05T09:49:05.085Z,4.50
2019-02-05T09:51:33.001Z,4.80
2019-02-05T09:54:00.784Z,4.90
2019-02-05T09:56:28.918Z,5.00
2019-02-05T09:58:56.678Z,5.20
2019-02-05T10:01:24.471Z,5.30
2019-02-05T10:03:52.230Z,5.40
2019-02-05T10:06:20.282Z,5.20
2019-02-05T10:08:48.062Z,5.30
2019-02-05T10:11:15.833Z,5.50
2019-02-05T10:13:43.664Z,6.00
2019-02-05T10:16:11.619Z,5.20
2019-02-05T10:18:39.448Z,5.30
2019-02-05T10:21:07.235Z,5.40
2019-02-05T10:23:35.049Z,5.90
2019-02-05T10:26:03.008Z,6.00
2019-02-05T10:28:30.832Z,6.20
2019-02-05T10:30:58.625Z,6.20
2019-02-05T10:33:26.453Z,6.40
2019-02-05T10:35:54.540Z,6.50
2019-02-05T10:38:22.694Z,6.40
2019-02-05T10:40:50.603Z,6.40
2019-02-05T10:43:18.426Z,6.50
2019-02-05T10:45:46.452Z,6.40
2019-02-05T10:48:14.218Z,6.20
2019-02-05T10:50:41.978Z,6.50
2019-02-05T10:53:10.307Z,6.70
2019-02-05T10:55:43.303Z,6.80
2019-02-05T10:58:11.226Z,7.10
2019-02-05T11:00:39.128Z,7.40
2019-02-05T11:03:07.784Z,7.40
2019-02-05T11:05:36.978Z,7.20
2019-02-05T11:08:08.378Z,7.20
2019-02-05T11:10:36.352Z,7.20
2019-02-05T11:13:05.600Z,7.20
2019-02-05T11:15:33.426Z,7.20
2019-02-05T11:18:01.621Z,7.20
2019-02-05T11:20:29.814Z,7.30
2019-02-05T11:22:58.830Z,7.40
2019-02-05T11:25:27.045Z,7.40
2019-02-05T11:27:55.972Z,7.50
2019-02-05T11:30:36.084Z,7.60
2019-02-05T11:33:04.512Z,7.60
2019-02-05T11:35:39.883Z,7.50
2019-02-05T11:38:10.178Z,7.70
2019-02-05T11:40:38.619Z,7.90
2019-02-05T11:43:06.459Z,7.80
2019-02-05T11:45:39.418Z,8.40
2019-02-05T11:48:14.761Z,8.50
2019-02-05T11:50:42.590Z,8.50
2019-02-05T11:53:10.393Z,8.40
2019-02-05T11:55:38.660Z,8.30
2019-02-05T11:58:06.462Z,8.30
2019-02-05T12:00:48.540Z,8.70
2019-02-05T12:03:16.739Z,8.60
2019-02-05T12:05:44.496Z,9.00
2019-02-05T12:08:12.349Z,9.70
2019-02-05T12:10:40.084Z,10.10
2019-02-05T12:13:07.914Z,9.80
2019-02-05T12:15:35.746Z,10.20
2019-02-05T12:18:04.015Z,10.30
2019-02-05T12:20:31.816Z,11.10
2019-02-05T12:23:00.287Z,11.00
2019-02-05T12:25:28.418Z,10.60
2019-02-05T12:27:56.181Z,10.20
2019-02-05T12:30:30.390Z,10.10
2019-02-05T12:32:58.202Z,10.40
2019-02-05T12:35:26.125Z,10.90
2019-02-05T12:37:53.951Z,11.20
2019-02-05T12:40:22.562Z,11.20
2019-02-05T12:42:50.471Z,11.00
2019-02-05T12:45:21.810Z,10.50
2019-02-05T12:47:49.608Z,10.20
2019-02-05T12:50:23.566Z,9.90
2019-02-05T12:52:51.572Z,9.60
2019-02-05T12:55:19.920Z,9.30
2019-02-05T12:57:47.720Z,9.20
2019-02-05T13:00:37.916Z,9.10
2019-02-05T13:03:06.930Z,8.90
2019-02-05T13:05:34.790Z,8.70
2019-02-05T13:08:05.370Z,8.80
2019-02-05T13:10:35.733Z,8.80
2019-02-05T13:13:05.879Z,8.80
2019-02-05T13:15:34.153Z,8.70
2019-02-05T13:18:01.934Z,8.70
2019-02-05T13:20:30.133Z,9.10
2019-02-05T13:22:59.531Z,9.30
2019-02-05T13:25:28.265Z,9.20
2019-02-05T13:27:56.107Z,9.10
2019-02-05T13:30:26.623Z,8.80
2019-02-05T13:32:54.668Z,8.40
2019-02-05T13:35:22.974Z,8.30
2019-02-05T13:37:51.293Z,8.20
2019-02-05T13:40:35.971Z,8.10
2019-02-05T13:43:05.897Z,8.00
2019-02-05T13:45:55.381Z,7.80
2019-02-05T13:48:25.139Z,8.10
2019-02-05T13:50:53.062Z,7.40
2019-02-05T13:53:20.887Z,7.40
2019-02-05T13:55:49.930Z,7.50
2019-02-05T13:58:17.948Z,7.40
2019-02-05T14:00:50.473Z,7.40
2019-02-05T14:03:18.393Z,7.30
2019-02-05T14:05:46.551Z,7.40
2019-02-05T14:08:14.356Z,7.60
2019-02-05T14:10:42.981Z,7.90
2019-02-05T14:13:11.032Z,7.80
2019-02-05T14:15:40.698Z,7.70
2019-02-05T14:18:09.151Z,7.70
2019-02-05T14:20:36.963Z,7.50
2019-02-05T14:23:04.728Z,7.40
2019-02-05T14:25:32.556Z,7.90
2019-02-05T14:28:00.335Z,7.50
2019-02-05T14:30:44.944Z,7.50
2019-02-05T14:33:12.787Z,7.60
2019-02-05T14:35:40.670Z,7.70
2019-02-05T14:38:09.505Z,7.60
2019-02-05T14:40:37.340Z,7.70
2019-02-05T14:43:06.472Z,7.80
2019-02-05T14:45:34.622Z,8.00
2019-02-05T14:48:02.591Z,8.20
2019-02-05T14:50:31.549Z,8.20
2019-02-05T14:52:59.458Z,8.30
2019-02-05T14:55:45.315Z,7.80
2019-02-05T14:58:15.179Z,7.60
2019-02-05T15:00:42.972Z,7.20
2019-02-05T15:03:12.722Z,7.00
2019-02-05T15:05:41.695Z,6.80
2019-02-05T15:08:11.152Z,6.70
2019-02-05T15:10:38.970Z,6.50
2019-02-05T15:13:07.196Z,6.40
2019-02-05T15:15:35.542Z,6.40
2019-02-05T15:18:04.380Z,6.30
2019-02-05T15:20:35.840Z,6.40
2019-02-05T15:23:05.650Z,6.10
2019-02-05T15:25:33.540Z,6.00
2019-02-05T15:28:01.275Z,5.80
2019-02-05T15:30:33.194Z,5.70
2019-02-05T15:33:19.264Z,5.60
2019-02-05T15:36:26.786Z,5.50
2019-02-05T15:38:54.558Z,6.10
2019-02-05T15:41:30.347Z,5.40
2019-02-05T15:44:00.653Z,5.40
2019-02-05T15:46:27.997Z,5.40
2019-02-05T15:49:15.287Z,5.40
2019-02-05T15:51:43.053Z,6.30
2019-02-05T15:54:10.834Z,5.20
2019-02-05T15:56:38.779Z,5.20
2019-02-05T15:59:07.161Z,5.10
2019-02-05T16:01:34.954Z,5.10
2019-02-05T16:04:02.766Z,5.10
2019-02-05T16:06:35.672Z,5.10
2019-02-05T16:09:07.208Z,5.10
2019-02-05T16:11:35.041Z,5.00
2019-02-05T16:14:02.803Z,5.00
2019-02-05T16:16:30.676Z,5.50
2019-02-05T16:18:58.499Z,4.90
2019-02-05T16:21:26.281Z,4.90
2019-02-05T16:23:54.090Z,4.90
2019-02-05T16:26:22.117Z,4.90
2019-02-05T16:28:50.011Z,4.90
2019-02-05T16:31:17.803Z,5.00
2019-02-05T16:33:45.621Z,5.10
2019-02-05T16:36:13.440Z,4.60
2019-02-05T16:38:41.286Z,4.60
2019-02-05T16:41:09.140Z,4.60
2019-02-05T16:43:36.969Z,4.50
2019-02-05T16:46:10.082Z,4.50
2019-02-05T16:48:38.184Z,4.40
2019-02-05T16:51:06.371Z,4.30
2019-02-05T16:53:34.203Z,4.60
2019-02-05T16:56:02.333Z,4.20
2019-02-05T16:58:30.170Z,4.20
2019-02-05T17:00:57.999Z,4.10
2019-02-05T17:03:25.810Z,4.10
2019-02-05T17:05:56.667Z,4.00
2019-02-05T17:08:24.499Z,3.90
2019-02-05T17:10:52.443Z,3.90
2019-02-05T17:13:20.214Z,3.70
2019-02-05T17:15:48.009Z,3.60
2019-02-05T17:18:23.211Z,3.90
2019-02-05T17:20:45.491Z,3.40
2019-02-05T17:23:13.286Z,3.30
2019-02-05T17:25:41.166Z,2.70
2019-02-05T17:28:08.969Z,3.10
2019-02-05T17:30:38.181Z,2.90
2019-02-05T17:33:06.380Z,2.90
2019-02-05T17:35:35.552Z,2.80
2019-02-05T17:38:06.478Z,2.80
2019-02-05T17:40:34.246Z,2.80
2019-02-05T17:43:02.046Z,2.80
2019-02-05T17:45:32.854Z,2.70
2019-02-05T17:48:04.489Z,2.80
2019-02-05T17:50:32.994Z,2.90
2019-02-05T17:53:01.131Z,2.90
2019-02-05T17:55:28.956Z,3.00
2019-02-05T17:57:56.794Z,3.00
2019-02-05T18:00:36.620Z,3.10
2019-02-05T18:03:05.134Z,3.20
2019-02-05T18:05:34.926Z,3.30
2019-02-05T18:08:03.351Z,3.30
2019-02-05T18:10:31.195Z,3.40
2019-02-05T18:12:59.032Z,3.40
2019-02-05T18:15:30.263Z,3.50
2019-02-05T18:17:58.219Z,3.50
2019-02-05T18:20:25.990Z,3.40
2019-02-05T18:22:54.126Z,3.40
2019-02-05T18:25:22.211Z,3.40
2019-02-05T18:27:50.126Z,3.30
2019-02-05T18:30:29.679Z,3.60
2019-02-05T18:33:03.625Z,3.30
2019-02-05T18:35:27.242Z,3.30
2019-02-05T18:37:55.115Z,3.30
2019-02-05T18:40:23.286Z,3.30
2019-02-05T18:42:51.207Z,3.30
2019-02-05T18:45:19.892Z,3.30
2019-02-05T18:47:47.799Z,3.30
2019-02-05T18:50:19.326Z,3.30
2019-02-05T18:52:47.624Z,3.30
2019-02-05T18:55:15.722Z,3.40
2019-02-05T18:57:43.556Z,3.50
2019-02-05T19:00:28.430Z,3.50
2019-02-05T19:02:56.329Z,3.50
2019-02-05T19:05:24.781Z,3.60
2019-02-05T19:07:52.674Z,4.00
2019-02-05T19:10:40.018Z,3.50
2019-02-05T19:13:07.864Z,2.30
2019-02-05T19:15:36.679Z,3.60
2019-02-05T19:18:06.098Z,3.60
2019-02-05T19:20:34.382Z,3.70
2019-02-05T19:23:02.688Z,3.80
2019-02-05T19:25:49.368Z,3.80
2019-02-05T19:28:34.696Z,3.70
2019-02-05T19:31:33.194Z,3.70
2019-02-05T19:34:01.108Z,2.60
2019-02-05T19:36:29.059Z,3.50
2019-02-05T19:38:56.973Z,3.40
2019-02-05T19:41:24.933Z,3.40
2019-02-05T19:43:52.923Z,3.40
2019-02-05T19:46:55.310Z,3.50
2019-02-05T19:49:31.182Z,3.40
2019-02-05T19:51:59.104Z,3.70
2019-02-05T19:54:27.400Z,3.40
2019-02-05T19:56:55.426Z,3.40
2019-02-05T19:59:23.679Z,3.30
2019-02-05T20:01:51.481Z,3.40
2019-02-05T20:04:19.333Z,3.30
2019-02-05T20:06:47.164Z,3.20
2019-02-05T20:09:15.015Z,3.20
2019-02-05T20:11:42.819Z,3.20
2019-02-05T20:14:10.714Z,3.30
2019-02-05T20:16:44.308Z,3.10
2019-02-05T20:19:12.546Z,3.20
2019-02-05T20:21:41.016Z,3.20
2019-02-05T20:24:14.854Z,3.20
2019-02-05T20:26:47.599Z,3.30
2019-02-05T20:29:15.215Z,3.30
2019-02-05T20:31:43.268Z,3.40
2019-02-05T20:34:11.149Z,3.50
2019-02-05T20:36:42.402Z,3.30
2019-02-05T20:39:24.770Z,3.40
2019-02-05T20:41:53.068Z,3.30
2019-02-05T20:44:21.029Z,3.30
2019-02-05T20:46:48.963Z,3.40
2019-02-05T20:49:16.987Z,3.40
2019-02-05T20:51:45.497Z,3.40
2019-02-05T20:54:13.657Z,3.50
2019-02-05T20:56:44.443Z,3.40
2019-02-05T20:59:12.256Z,3.40
2019-02-05T21:01:40.082Z,3.40
2019-02-05T21:04:07.995Z,3.30
2019-02-05T21:06:35.819Z,3.30
2019-02-05T21:09:18.189Z,3.70
2019-02-05T21:11:46.119Z,3.30
2019-02-05T21:14:13.973Z,3.30
2019-02-05T21:16:41.767Z,3.30
2019-02-05T21:19:09.561Z,3.40
2019-02-05T21:21:37.417Z,3.40
2019-02-05T21:24:05.861Z,3.40
2019-02-05T21:26:33.774Z,3.40
2019-02-05T21:29:01.526Z,3.30
2019-02-05T21:31:29.342Z,3.30
2019-02-05T21:33:57.188Z,3.20
2019-02-05T21:36:25.052Z,3.40
2019-02-05T21:38:52.973Z,3.30
2019-02-05T21:41:20.783Z,3.30
2019-02-05T21:43:48.643Z,3.30
2019-02-05T21:46:16.455Z,3.20
2019-02-05T21:48:44.343Z,3.20
2019-02-05T21:51:12.139Z,3.20
2019-02-05T21:53:39.957Z,3.20
2019-02-05T21:56:07.732Z,3.40
2019-02-05T21:58:35.552Z,3.10
2019-02-05T22:01:04.878Z,3.10
2019-02-05T22:03:32.678Z,3.00
2019-02-05T22:06:05.719Z,2.90
2019-02-05T22:08:33.571Z,2.90
2019-02-05T22:11:01.388Z,3.00
2019-02-05T22:13:29.248Z,3.20
2019-02-05T22:15:57.055Z,2.60
2019-02-05T22:18:24.804Z,2.60
2019-02-05T22:20:52.665Z,2.90
2019-02-05T22:23:21.584Z,2.50
2019-02-05T22:25:49.407Z,2.40
2019-02-05T22:28:17.194Z,2.40
2019-02-05T22:30:46.908Z,2.40
2019-02-05T22:33:14.701Z,2.90
2019-02-05T22:35:42.853Z,2.50
2019-02-05T22:38:10.673Z,2.40
2019-02-05T22:40:38.458Z,3.00
2019-02-05T22:43:06.821Z,2.20
2019-02-05T22:45:34.608Z,2.20
2019-02-05T22:48:02.362Z,2.40
2019-02-05T22:50:31.510Z,2.00
2019-02-05T22:53:00.244Z,2.30
2019-02-05T22:55:28.093Z,1.80
2019-02-05T22:57:55.887Z,1.70
2019-02-05T23:01:13.591Z,1.70
2019-02-05T23:04:58.945Z,1.50
2019-02-05T23:07:29.094Z,1.40
2019-02-05T23:11:03.462Z,1.30
2019-02-05T23:13:26.133Z,1.30
2019-02-05T23:15:54.448Z,1.10
2019-02-05T23:18:22.237Z,1.10
2019-02-05T23:20:50.042Z,1.00
2019-02-05T23:23:17.932Z,1.00
2019-02-05T23:25:45.756Z,1.00
2019-02-05T23:28:13.538Z,1.00
2019-02-05T23:30:41.497Z,0.90
2019-02-05T23:33:09.688Z,0.90
2019-02-05T23:35:37.551Z,0.80
2019-02-05T23:38:05.598Z,0.80
2019-02-05T23:40:33.387Z,1.10
2019-02-05T23:43:01.170Z,0.80
2019-02-05T23:45:28.986Z,0.70
2019-02-05T23:47:56.881Z,0.60
2019-02-05T23:50:24.985Z,0.80
2019-02-05T23:52:52.803Z,0.80
2019-02-05T23:55:20.635Z,0.60
2019-02-05T23:57:48.431Z,0.40
